Time;durP1;ratioP1;P1;durP2;ratioP2;P2;SDS_P1;SDS_P2;PMS_P1;PMS_P2;Temp;Humidity;BMP_temperature;BMP_pressure;BME280_temperature;BME280_humidity;BME280_pressure;Samples;Min_cycle;Max_cycle;Signal;HPM_P1;HPM_P2
2022/06/26 00:00:21;;;;;;;;;;;29.70;54.50;;;;;;686544;28;1356;-95
2022/06/26 00:00:42;;;;;;;;;;;29.60;52.50;;;;;;686741;28;1379;-96
2022/06/26 00:01:03;;;;;;;;;;;29.50;58.20;;;;;;687016;28;1276;-96
2022/06/26 00:01:23;;;;;;;;;;;29.40;62.50;;;;;;687784;28;1041;-96
2022/06/26 00:01:44;;;;;;;;;;;27.70;56.40;;;;;;686406;28;1237;-96
2022/06/26 00:02:05;;;;;;;;;;;29.80;59.10;;;;;;681801;28;1443;-96
2022/06/26 00:02:25;;;;;;;;;;;29.60;62.40;;;;;;681305;29;1296;-96
2022/06/26 00:02:46;;;;;;;;;;;29.50;57.40;;;;;;679525;29;1280;-95
2022/06/26 00:03:07;;;;;;;;;;;29.40;57.70;;;;;;681480;29;1192;-95
2022/06/26 00:03:30;;;;;;;;;;;29.30;61.10;;;;;;679811;29;1464;-96
2022/06/26 00:03:58;;;;;;;;;;;25.60;53.70;;;;;;682859;29;1011;-96
2022/06/26 00:04:18;;;;;;;;;;;29.40;60.50;;;;;;680648;29;1250;-95
2022/06/26 00:04:39;;;;;;;;;;;29.80;62.10;;;;;;681502;29;1293;-95
2022/06/26 00:05:00;;;;;;;;;;;29.40;59.70;;;;;;685575;28;1272;-96
2022/06/26 00:05:22;;;;;;;;;;;29.70;60.60;;;;;;685852;28;1253;-95
2022/06/26 00:05:42;;;;;;;;;;;29.80;52.60;;;;;;684026;29;1350;-95
2022/06/26 00:06:03;;;;;;;;;;;29.90;62.80;;;;;;686762;28;1358;-95
2022/06/26 00:06:24;;;;;;;;;;;29.40;56.10;;;;;;681218;29;1300;-96
2022/06/26 00:06:45;;;;;;;;;;;29.50;56.50;;;;;;682011;29;1218;-95
2022/06/26 00:07:05;;;;;;;;;;;29.40;58.00;;;;;;684212;28;1249;-96
2022/06/26 00:07:30;;;;;;;;;;;29.40;60.40;;;;;;684180;29;1915;-95
2022/06/26 00:07:51;;;;;;;;;;;29.40;54.80;;;;;;686877;28;1357;-95
2022/06/26 00:08:12;;;;;;;;;;;29.40;56.60;;;;;;689023;28;1244;-95
2022/06/26 00:08:33;;;;;;;;;;;29.60;57.30;;;;;;689441;28;1351;-96
2022/06/26 00:08:54;;;;;;;;;;;29.60;62.50;;;;;;687440;28;1272;-96
2022/06/26 00:09:15;;;;;;;;;;;29.60;55.00;;;;;;692570;28;1315;-96
2022/06/26 00:09:35;;;;;;;;;;;29.80;59.60;;;;;;690093;28;1288;-95
2022/06/26 00:09:57;;;;;;;;;;;30.80;58.20;;;;;;689819;28;1221;-94
2022/06/26 00:10:18;;;;;;;;;;;29.40;55.00;;;;;;690646;28;1287;-96
2022/06/26 00:10:39;;;;;;;;;;;29.40;60.80;;;;;;690306;28;1187;-96
2022/06/26 00:10:59;;;;;;;;;;;29.60;62.00;;;;;;687172;28;1367;-96
2022/06/26 00:11:20;;;;;;;;;;;29.70;58.80;;;;;;682477;29;1293;-96
2022/06/26 00:11:42;;;;;;;;;;;29.80;58.10;;;;;;683098;29;1265;-95
2022/06/26 00:12:03;;;;;;;;;;;29.40;52.10;;;;;;685278;29;1232;-96
2022/06/26 00:12:24;;;;;;;;;;;29.40;55.10;;;;;;683006;29;1391;-96
2022/06/26 00:12:44;;;;;;;;;;;29.40;56.90;;;;;;685358;28;1484;-95
2022/06/26 00:13:05;;;;;;;;;;;29.60;61.40;;;;;;688541;28;1407;-96
2022/06/26 00:13:26;;;;;;;;;;;29.50;58.50;;;;;;690466;28;1441;-96
2022/06/26 00:13:46;;;;;;;;;;;29.70;58.50;;;;;;682682;28;1404;-96
2022/06/26 00:14:07;;;;;;;;;;;31.50;63.40;;;;;;687350;28;1318;-96
2022/06/26 00:14:28;;;;;;;;;;;29.40;58.50;;;;;;685963;29;1248;-96
2022/06/26 00:14:50;;;;;;;;;;;29.60;59.20;;;;;;683243;29;1335;-96
2022/06/26 00:15:12;;;;;;;;;;;29.50;52.40;;;;;;683068;29;1317;-96
2022/06/26 00:15:33;;;;;;;;;;;29.40;52.20;;;;;;682605;29;1210;-96
2022/06/26 00:15:53;;;;;;;;;;;29.50;59.10;;;;;;686791;28;1160;-96
2022/06/26 00:16:14;;;;;;;;;;;29.60;61.50;;;;;;685310;29;1228;-96
2022/06/26 00:16:35;;;;;;;;;;;29.40;54.30;;;;;;685100;29;1292;-94
2022/06/26 00:16:56;;;;;;;;;;;29.40;56.30;;;;;;685771;28;1304;-96
2022/06/26 00:17:16;;;;;;;;;;;29.40;59.40;;;;;;687863;28;1205;-94
2022/06/26 00:17:37;;;;;;;;;;;29.50;59.30;;;;;;685294;28;1183;-96
2022/06/26 00:18:02;;;;;;;;;;;29.30;61.40;;;;;;682977;28;1292;-96
2022/06/26 00:18:23;;;;;;;;;;;29.30;52.00;;;;;;684049;29;1443;-95
2022/06/26 00:18:44;;;;;;;;;;;29.40;59.90;;;;;;686521;28;1156;-96
2022/06/26 00:19:04;;;;;;;;;;;29.30;57.50;;;;;;690547;28;1318;-95
2022/06/26 00:19:25;;;;;;;;;;;29.60;59.50;;;;;;693707;28;1322;-95
2022/06/26 00:19:45;;;;;;;;;;;29.40;58.80;;;;;;693740;28;1254;-96
2022/06/26 00:20:07;;;;;;;;;;;29.80;62.40;;;;;;696102;28;1277;-95
2022/06/26 00:20:29;;;;;;;;;;;29.40;55.00;;;;;;688636;28;1265;-96
2022/06/26 00:20:49;;;;;;;;;;;29.40;52.20;;;;;;686795;28;1303;-95
2022/06/26 00:21:33;;;;;;;;;;;29.60;58.80;;;;;;682769;29;1311;-96
2022/06/26 00:21:54;;;;;;;;;;;29.50;52.30;;;;;;685564;29;1569;-96
2022/06/26 00:22:17;;;;;;;;;;;29.30;59.40;;;;;;687282;28;902;-96
2022/06/26 00:22:37;;;;;;;;;;;28.70;58.80;;;;;;690579;28;1285;-96
2022/06/26 00:22:59;;;;;;;;;;;29.50;60.30;;;;;;687775;28;1272;-96
2022/06/26 00:23:19;;;;;;;;;;;29.80;62.20;;;;;;687194;28;1218;-96
2022/06/26 00:23:41;;;;;;;;;;;29.30;61.10;;;;;;687302;28;1397;-96
2022/06/26 00:24:02;;;;;;;;;;;29.50;52.50;;;;;;687083;28;1426;-94
2022/06/26 00:24:25;;;;;;;;;;;27.30;55.50;;;;;;689849;28;1328;-93
2022/06/26 00:24:46;;;;;;;;;;;32.40;54.70;;;;;;688235;28;792;-91
2022/06/26 00:25:08;;;;;;;;;;;29.30;54.10;;;;;;691139;28;1485;-91
2022/06/26 00:25:29;;;;;;;;;;;29.30;54.10;;;;;;691873;28;1572;-88
2022/06/26 00:25:50;;;;;;;;;;;29.40;52.70;;;;;;691623;28;1513;-85
2022/06/26 00:26:11;;;;;;;;;;;29.30;53.40;;;;;;691298;28;798;-91
2022/06/26 00:26:31;;;;;;;;;;;29.30;52.90;;;;;;689197;28;1473;-93
2022/06/26 00:26:53;;;;;;;;;;;29.40;53.90;;;;;;688281;28;1005;-93
2022/06/26 00:27:14;;;;;;;;;;;29.30;52.30;;;;;;687000;28;1224;-90
2022/06/26 00:27:35;;;;;;;;;;;29.30;52.40;;;;;;686206;28;1910;-92
2022/06/26 00:27:55;;;;;;;;;;;29.20;53.60;;;;;;689345;28;1294;-94
2022/06/26 00:28:16;;;;;;;;;;;29.40;52.50;;;;;;689487;28;1395;-94
2022/06/26 00:28:36;;;;;;;;;;;29.30;52.70;;;;;;686245;28;1417;-93
2022/06/26 00:28:57;;;;;;;;;;;29.30;54.10;;;;;;686201;28;1601;-94
2022/06/26 00:29:17;;;;;;;;;;;29.40;53.20;;;;;;684791;28;1645;-93
2022/06/26 00:29:38;;;;;;;;;;;29.40;53.40;;;;;;684219;28;1196;-92
2022/06/26 00:29:59;;;;;;;;;;;29.30;53.20;;;;;;683518;28;1312;-92
2022/06/26 00:30:19;;;;;;;;;;;29.30;53.80;;;;;;678656;29;1116;-92
2022/06/26 00:30:40;;;;;;;;;;;29.30;54.40;;;;;;678436;29;1218;-92
2022/06/26 00:31:01;;;;;;;;;;;29.30;55.80;;;;;;678544;29;1551;-89
2022/06/26 00:31:21;;;;;;;;;;;29.20;53.60;;;;;;679221;29;1722;-93
2022/06/26 00:31:42;;;;;;;;;;;29.60;54.90;;;;;;678431;29;1408;-92
2022/06/26 00:32:04;;;;;;;;;;;29.30;53.70;;;;;;681453;29;1357;-92
2022/06/26 00:32:25;;;;;;;;;;;29.30;52.90;;;;;;683726;29;1166;-93
2022/06/26 00:32:45;;;;;;;;;;;29.40;54.00;;;;;;683849;29;1185;-92
2022/06/26 00:33:06;;;;;;;;;;;29.30;53.00;;;;;;683706;29;1321;-93
2022/06/26 00:33:27;;;;;;;;;;;29.30;54.20;;;;;;684326;28;1268;-93
2022/06/26 00:33:47;;;;;;;;;;;29.20;53.50;;;;;;684692;28;1283;-93
2022/06/26 00:34:08;;;;;;;;;;;29.30;54.30;;;;;;686561;28;939;-93
2022/06/26 00:34:29;;;;;;;;;;;29.40;55.60;;;;;;686796;28;1272;-92
2022/06/26 00:34:49;;;;;;;;;;;29.40;54.00;;;;;;687340;28;1306;-94
2022/06/26 00:35:10;;;;;;;;;;;29.30;53.30;;;;;;683430;29;1206;-94
2022/06/26 00:35:30;;;;;;;;;;;29.30;54.10;;;;;;683937;29;1412;-92
2022/06/26 00:35:51;;;;;;;;;;;29.20;53.00;;;;;;685527;28;1451;-88
2022/06/26 00:36:12;;;;;;;;;;;29.20;53.90;;;;;;687544;28;783;-90
2022/06/26 00:36:32;;;;;;;;;;;29.20;53.80;;;;;;687627;28;804;-92
2022/06/26 00:36:53;;;;;;;;;;;29.30;53.10;;;;;;685471;28;1360;-93
2022/06/26 00:37:14;;;;;;;;;;;29.20;57.70;;;;;;686955;28;1321;-92
2022/06/26 00:37:34;;;;;;;;;;;29.20;53.00;;;;;;686671;28;1438;-91
2022/06/26 00:37:55;;;;;;;;;;;29.20;54.30;;;;;;690135;28;1270;-91
2022/06/26 00:38:16;;;;;;;;;;;29.30;53.00;;;;;;689276;28;1204;-85
2022/06/26 00:38:37;;;;;;;;;;;29.20;53.10;;;;;;686465;28;1203;-93
2022/06/26 00:38:57;;;;;;;;;;;29.20;53.90;;;;;;687678;28;1410;-93
2022/06/26 00:39:18;;;;;;;;;;;29.20;55.10;;;;;;687344;28;1250;-93
2022/06/26 00:39:38;;;;;;;;;;;29.20;54.30;;;;;;682079;29;1447;-92
2022/06/26 00:39:59;;;;;;;;;;;29.20;53.90;;;;;;681352;29;1064;-88
2022/06/26 00:40:20;;;;;;;;;;;29.20;53.90;;;;;;682154;29;837;-93
2022/06/26 00:40:42;;;;;;;;;;;29.00;54.90;;;;;;679574;29;1240;-92
2022/06/26 00:41:03;;;;;;;;;;;29.20;55.00;;;;;;682322;29;1147;-88
2022/06/26 00:41:24;;;;;;;;;;;29.20;54.70;;;;;;684805;28;870;-94
2022/06/26 00:41:44;;;;;;;;;;;29.20;53.80;;;;;;684743;28;1469;-92
2022/06/26 00:42:05;;;;;;;;;;;29.20;54.30;;;;;;685418;28;1283;-93
2022/06/26 00:42:26;;;;;;;;;;;29.20;53.50;;;;;;685103;28;1181;-92
2022/06/26 00:42:46;;;;;;;;;;;29.20;53.30;;;;;;684782;28;1248;-92
2022/06/26 00:43:07;;;;;;;;;;;29.20;53.20;;;;;;686059;28;1333;-90
2022/06/26 00:43:28;;;;;;;;;;;29.20;53.20;;;;;;681782;29;1207;-92
2022/06/26 00:43:49;;;;;;;;;;;29.20;53.10;;;;;;680662;29;1195;-93
2022/06/26 00:44:16;;;;;;;;;;;29.20;53.10;;;;;;681625;29;1322;-93
2022/06/26 00:44:37;;;;;;;;;;;29.20;53.10;;;;;;683643;29;1299;-92
2022/06/26 00:44:57;;;;;;;;;;;29.20;54.60;;;;;;681273;29;1223;-93
2022/06/26 00:45:18;;;;;;;;;;;29.20;53.60;;;;;;682067;29;1279;-93
2022/06/26 00:45:38;;;;;;;;;;;29.20;53.50;;;;;;685154;28;1183;-91
2022/06/26 00:45:59;;;;;;;;;;;29.20;54.10;;;;;;688438;28;1366;-93
2022/06/26 00:46:24;;;;;;;;;;;29.20;53.40;;;;;;682930;29;1206;-91
2022/06/26 00:46:45;;;;;;;;;;;29.10;54.30;;;;;;685260;28;1200;-94
2022/06/26 00:47:05;;;;;;;;;;;29.20;53.50;;;;;;685644;28;1206;-94
2022/06/26 00:47:26;;;;;;;;;;;29.20;54.20;;;;;;683497;28;1966;-95
2022/06/26 00:47:46;;;;;;;;;;;29.20;54.90;;;;;;681871;29;1292;-94
2022/06/26 00:48:07;;;;;;;;;;;29.30;54.90;;;;;;686348;28;1414;-94
2022/06/26 00:48:27;;;;;;;;;;;29.20;55.20;;;;;;686503;28;1398;-95
2022/06/26 00:48:48;;;;;;;;;;;29.20;55.10;;;;;;684870;28;1149;-95
2022/06/26 00:49:09;;;;;;;;;;;29.40;55.20;;;;;;686439;28;1166;-89
2022/06/26 00:49:29;;;;;;;;;;;29.20;55.10;;;;;;684856;28;1250;-94
2022/06/26 00:49:50;;;;;;;;;;;29.20;57.30;;;;;;682030;29;1215;-93
2022/06/26 00:50:11;;;;;;;;;;;29.10;54.10;;;;;;680922;29;1183;-93
2022/06/26 00:50:32;;;;;;;;;;;29.10;54.10;;;;;;681558;29;1306;-95
2022/06/26 00:50:53;;;;;;;;;;;29.20;54.10;;;;;;681529;28;1304;-95
2022/06/26 00:51:13;;;;;;;;;;;29.20;53.40;;;;;;683521;29;1322;-89
2022/06/26 00:51:35;;;;;;;;;;;29.10;53.80;;;;;;682959;29;1334;-93
2022/06/26 00:51:56;;;;;;;;;;;29.10;53.80;;;;;;681235;29;1198;-94
2022/06/26 00:52:18;;;;;;;;;;;29.10;53.90;;;;;;681534;29;1183;-93
2022/06/26 00:52:39;;;;;;;;;;;29.10;54.30;;;;;;681796;29;974;-94
2022/06/26 00:53:00;;;;;;;;;;;29.10;54.20;;;;;;682956;29;1222;-93
2022/06/26 00:53:20;;;;;;;;;;;29.10;54.10;;;;;;682112;28;1217;-93
2022/06/26 00:53:41;;;;;;;;;;;29.20;53.70;;;;;;686168;28;1194;-94
2022/06/26 00:54:02;;;;;;;;;;;29.10;54.80;;;;;;686253;28;1251;-93
2022/06/26 00:54:24;;;;;;;;;;;29.20;53.60;;;;;;682988;29;1294;-89
2022/06/26 00:54:44;;;;;;;;;;;29.20;53.60;;;;;;687132;28;931;-93
2022/06/26 00:55:05;;;;;;;;;;;29.10;54.00;;;;;;691703;28;1344;-93
2022/06/26 00:55:26;;;;;;;;;;;29.20;53.60;;;;;;690710;28;1058;-94
2022/06/26 00:55:46;;;;;;;;;;;29.20;55.40;;;;;;689942;28;965;-95
2022/06/26 00:56:07;;;;;;;;;;;29.10;55.70;;;;;;691116;28;1001;-91
2022/06/26 00:56:28;;;;;;;;;;;32.60;59.80;;;;;;691994;28;1395;-91
2022/06/26 00:56:48;;;;;;;;;;;29.40;57.50;;;;;;688574;28;1404;-91
2022/06/26 00:57:09;;;;;;;;;;;29.10;54.20;;;;;;688020;28;1180;-91
2022/06/26 00:57:29;;;;;;;;;;;29.20;53.80;;;;;;683778;29;1197;-93
2022/06/26 00:57:50;;;;;;;;;;;29.10;53.80;;;;;;684195;29;1125;-93
2022/06/26 00:58:11;;;;;;;;;;;29.10;54.80;;;;;;686296;28;1218;-95
2022/06/26 00:58:31;;;;;;;;;;;29.20;55.80;;;;;;689422;28;1448;-95
2022/06/26 00:58:52;;;;;;;;;;;29.10;56.00;;;;;;691743;28;1278;-94
2022/06/26 00:59:13;;;;;;;;;;;29.10;54.70;;;;;;689267;28;1239;-88
2022/06/26 00:59:33;;;;;;;;;;;29.10;53.30;;;;;;691850;28;1216;-90
2022/06/26 00:59:55;;;;;;;;;;;29.20;54.90;;;;;;687790;28;1335;-94
2022/06/26 01:00:20;;;;;;;;;;;29.20;53.20;;;;;;687665;28;1180;-93
2022/06/26 01:00:41;;;;;;;;;;;29.20;52.90;;;;;;685454;28;807;-93
2022/06/26 01:01:02;;;;;;;;;;;29.20;53.10;;;;;;688059;28;1206;-94
2022/06/26 01:01:23;;;;;;;;;;;29.20;57.00;;;;;;689037;28;1505;-95
2022/06/26 01:01:44;;;;;;;;;;;29.20;54.40;;;;;;689858;28;1213;-92
2022/06/26 01:02:04;;;;;;;;;;;29.20;54.40;;;;;;691678;28;966;-93
2022/06/26 01:02:25;;;;;;;;;;;29.20;55.60;;;;;;691658;28;1315;-92
2022/06/26 01:02:46;;;;;;;;;;;29.20;54.60;;;;;;689182;28;1181;-93
2022/06/26 01:03:06;;;;;;;;;;;29.20;54.20;;;;;;686209;28;1243;-93
2022/06/26 01:03:27;;;;;;;;;;;28.70;54.50;;;;;;686143;28;1434;-85
2022/06/26 01:03:48;;;;;;;;;;;29.20;55.40;;;;;;686408;28;1189;-92
2022/06/26 01:04:08;;;;;;;;;;;29.20;55.50;;;;;;686158;28;1189;-93
2022/06/26 01:04:29;;;;;;;;;;;29.30;56.20;;;;;;685811;28;1217;-93
2022/06/26 01:04:50;;;;;;;;;;;29.10;54.00;;;;;;690392;28;1341;-92
2022/06/26 01:05:10;;;;;;;;;;;29.20;54.90;;;;;;691241;28;1306;-93
2022/06/26 01:05:31;;;;;;;;;;;29.20;54.40;;;;;;688892;28;795;-93
2022/06/26 01:05:52;;;;;;;;;;;29.20;54.10;;;;;;685308;28;1420;-93
2022/06/26 01:06:12;;;;;;;;;;;29.20;53.00;;;;;;683870;28;1274;-92
2022/06/26 01:06:34;;;;;;;;;;;29.40;55.20;;;;;;683658;29;974;-94
2022/06/26 01:06:55;;;;;;;;;;;29.20;53.20;;;;;;681548;29;1310;-95
2022/06/26 01:07:15;;;;;;;;;;;29.20;54.40;;;;;;683791;29;981;-94
2022/06/26 01:07:36;;;;;;;;;;;29.20;54.10;;;;;;683331;29;1970;-93
2022/06/26 01:07:56;;;;;;;;;;;29.20;53.90;;;;;;688369;28;1164;-93
2022/06/26 01:08:17;;;;;;;;;;;29.20;54.40;;;;;;687811;28;1177;-84
2022/06/26 01:08:38;;;;;;;;;;;29.20;55.10;;;;;;683846;28;1320;-93
2022/06/26 01:08:58;;;;;;;;;;;29.30;55.40;;;;;;683595;28;1292;-93
2022/06/26 01:09:19;;;;;;;;;;;29.40;55.10;;;;;;683684;29;852;-93
2022/06/26 01:09:39;;;;;;;;;;;29.30;55.10;;;;;;680984;29;1449;-93
2022/06/26 01:10:03;;;;;;;;;;;29.30;55.00;;;;;;681008;29;1439;-92
2022/06/26 01:10:24;;;;;;;;;;;29.20;52.60;;;;;;684912;28;1170;-91
2022/06/26 01:10:47;;;;;;;;;;;29.30;54.10;;;;;;686867;28;1370;-92
2022/06/26 01:11:17;;;;;;;;;;;29.30;52.90;;;;;;691470;28;1184;-94
2022/06/26 01:11:38;;;;;;;;;;;29.30;54.00;;;;;;688214;28;1194;-93
2022/06/26 01:11:58;;;;;;;;;;;29.30;53.40;;;;;;687165;28;1208;-93
2022/06/26 01:12:19;;;;;;;;;;;29.30;54.80;;;;;;683859;28;1328;-89
2022/06/26 01:12:40;;;;;;;;;;;29.30;52.60;;;;;;682543;29;1241;-93
2022/06/26 01:13:01;;;;;;;;;;;29.30;54.30;;;;;;684540;28;823;-93
2022/06/26 01:13:21;;;;;;;;;;;29.20;56.90;;;;;;683619;29;1182;-94
2022/06/26 01:13:42;;;;;;;;;;;29.20;54.50;;;;;;681673;29;1183;-94
2022/06/26 01:14:03;;;;;;;;;;;29.30;53.90;;;;;;685897;28;1371;-95
2022/06/26 01:14:24;;;;;;;;;;;29.40;53.00;;;;;;686903;28;1396;-90
2022/06/26 01:14:45;;;;;;;;;;;29.30;53.50;;;;;;686872;28;1310;-95
2022/06/26 01:15:06;;;;;;;;;;;29.30;52.60;;;;;;684142;29;1314;-94
2022/06/26 01:15:27;;;;;;;;;;;29.30;54.10;;;;;;683957;29;1403;-94
2022/06/26 01:15:48;;;;;;;;;;;29.30;53.60;;;;;;683850;29;887;-93
2022/06/26 01:16:08;;;;;;;;;;;29.30;53.50;;;;;;683833;28;1352;-94
2022/06/26 01:16:29;;;;;;;;;;;29.30;53.60;;;;;;683852;28;1291;-89
2022/06/26 01:16:50;;;;;;;;;;;29.40;54.60;;;;;;685662;28;1310;-93
2022/06/26 01:17:11;;;;;;;;;;;29.30;53.00;;;;;;683409;29;1229;-94
2022/06/26 01:17:31;;;;;;;;;;;29.30;55.80;;;;;;683685;29;958;-94
2022/06/26 01:17:53;;;;;;;;;;;29.30;55.10;;;;;;685642;28;1291;-93
2022/06/26 01:18:13;;;;;;;;;;;29.40;53.60;;;;;;689372;28;1291;-94
2022/06/26 01:18:34;;;;;;;;;;;29.30;53.60;;;;;;686621;28;1197;-94
2022/06/26 01:18:55;;;;;;;;;;;29.30;53.10;;;;;;682794;28;1198;-96
2022/06/26 01:19:17;;;;;;;;;;;29.30;53.00;;;;;;683390;29;1263;-94
2022/06/26 01:19:37;;;;;;;;;;;29.30;52.50;;;;;;686161;28;1252;-95
2022/06/26 01:19:58;;;;;;;;;;;27.90;51.70;;;;;;683497;29;1221;-95
2022/06/26 01:20:19;;;;;;;;;;;29.30;53.10;;;;;;680659;29;1190;-94
2022/06/26 01:20:39;;;;;;;;;;;29.30;53.40;;;;;;681326;29;835;-93
2022/06/26 01:21:00;;;;;;;;;;;29.30;55.90;;;;;;683962;28;1248;-93
2022/06/26 01:21:23;;;;;;;;;;;29.30;53.10;;;;;;685601;28;772;-88
2022/06/26 01:21:46;;;;;;;;;;;29.30;53.70;;;;;;680984;29;1200;-94
2022/06/26 01:22:08;;;;;;;;;;;29.30;54.40;;;;;;684607;28;823;-92
2022/06/26 01:22:29;;;;;;;;;;;29.30;55.60;;;;;;686044;28;1193;-90
2022/06/26 01:23:03;;;;;;;;;;;29.30;57.30;;;;;;684501;28;1269;-92
2022/06/26 01:23:24;;;;;;;;;;;29.60;52.60;;;;;;686071;28;823;-87
2022/06/26 01:23:45;;;;;;;;;;;29.30;56.70;;;;;;685588;28;982;-94
2022/06/26 01:24:05;;;;;;;;;;;29.50;54.00;;;;;;683442;29;1293;-93
2022/06/26 01:24:26;;;;;;;;;;;29.30;54.80;;;;;;683338;29;1325;-93
2022/06/26 01:24:48;;;;;;;;;;;29.30;53.90;;;;;;681428;29;1249;-92
2022/06/26 01:25:09;;;;;;;;;;;29.30;53.70;;;;;;683356;29;1221;-93
2022/06/26 01:25:39;;;;;;;;;;;29.40;54.10;;;;;;682918;29;1335;-93
2022/06/26 01:26:00;;;;;;;;;;;29.30;52.30;;;;;;688050;28;1394;-95
2022/06/26 01:26:21;;;;;;;;;;;29.30;54.10;;;;;;690499;28;1293;-94
2022/06/26 01:26:42;;;;;;;;;;;29.30;52.80;;;;;;688731;28;1190;-94
2022/06/26 01:27:03;;;;;;;;;;;29.30;52.80;;;;;;686056;28;1166;-93
2022/06/26 01:27:23;;;;;;;;;;;29.30;52.90;;;;;;681457;29;1325;-91
2022/06/26 01:27:44;;;;;;;;;;;29.40;53.20;;;;;;680282;29;1898;-86
2022/06/26 01:28:04;;;;;;;;;;;29.40;53.00;;;;;;678300;29;1200;-88
2022/06/26 01:28:25;;;;;;;;;;;29.40;53.00;;;;;;680584;29;872;-84
2022/06/26 01:28:46;;;;;;;;;;;29.30;54.40;;;;;;683859;28;1309;-93
2022/06/26 01:29:07;;;;;;;;;;;29.40;54.10;;;;;;683792;28;1206;-85
2022/06/26 01:29:27;;;;;;;;;;;29.40;52.40;;;;;;686464;28;1281;-93
2022/06/26 01:29:48;;;;;;;;;;;29.30;52.80;;;;;;686868;28;1357;-90
2022/06/26 01:30:09;;;;;;;;;;;29.40;52.50;;;;;;688499;28;783;-94
2022/06/26 01:30:32;;;;;;;;;;;29.40;52.40;;;;;;686267;28;855;-90
2022/06/26 01:30:53;;;;;;;;;;;29.40;52.90;;;;;;688782;28;1390;-91
2022/06/26 01:31:14;;;;;;;;;;;29.30;56.30;;;;;;686053;28;1307;-94
2022/06/26 01:31:34;;;;;;;;;;;29.30;52.60;;;;;;687040;28;870;-93
2022/06/26 01:31:55;;;;;;;;;;;29.70;53.30;;;;;;688904;28;791;-93
2022/06/26 01:32:16;;;;;;;;;;;29.40;52.70;;;;;;686015;28;1330;-90
2022/06/26 01:32:37;;;;;;;;;;;29.20;55.00;;;;;;685548;28;1238;-91
2022/06/26 01:32:57;;;;;;;;;;;29.40;52.80;;;;;;685594;28;1234;-90
2022/06/26 01:33:18;;;;;;;;;;;29.40;53.30;;;;;;688799;28;1348;-90
2022/06/26 01:33:39;;;;;;;;;;;29.50;54.30;;;;;;688658;28;899;-92
2022/06/26 01:34:02;;;;;;;;;;;29.30;54.20;;;;;;688998;28;1236;-87
2022/06/26 01:34:22;;;;;;;;;;;29.40;53.40;;;;;;689431;28;1064;-92
2022/06/26 01:34:43;;;;;;;;;;;29.40;53.20;;;;;;686734;28;1302;-90
2022/06/26 01:35:06;;;;;;;;;;;29.30;53.70;;;;;;688553;28;839;-91
2022/06/26 01:35:57;;;;;;;;;;;29.40;52.30;;;;;;78704;27;1643;-83
2022/06/26 01:36:18;;;;;;;;;;;29.30;53.90;;;;;;683089;28;1490;-88
2022/06/26 01:36:38;;;;;;;;;;;29.40;53.00;;;;;;687078;28;1407;-89
2022/06/26 01:37:00;;;;;;;;;;;29.30;53.00;;;;;;686916;28;1170;-90
2022/06/26 01:37:20;;;;;;;;;;;29.30;52.20;;;;;;689626;28;1153;-86
2022/06/26 01:37:41;;;;;;;;;;;29.30;53.80;;;;;;686725;28;1078;-91
2022/06/26 01:38:15;;;;;;;;;;;29.30;54.20;;;;;;684086;28;1376;-87
2022/06/26 01:38:35;;;;;;;;;;;29.30;52.30;;;;;;681260;29;1392;-89
2022/06/26 01:38:56;;;;;;;;;;;29.40;53.10;;;;;;683709;29;765;-89
2022/06/26 01:39:20;;;;;;;;;;;29.30;54.10;;;;;;678746;29;1213;-87
2022/06/26 01:39:40;;;;;;;;;;;29.30;52.00;;;;;;680485;29;1264;-87
2022/06/26 01:40:01;;;;;;;;;;;29.40;52.70;;;;;;680666;29;1157;-87
2022/06/26 01:40:21;;;;;;;;;;;29.30;52.40;;;;;;679317;29;1309;-86
2022/06/26 01:40:43;;;;;;;;;;;29.30;52.30;;;;;;680760;29;804;-90
2022/06/26 01:41:03;;;;;;;;;;;29.30;52.20;;;;;;678254;29;1366;-85
2022/06/26 01:41:24;;;;;;;;;;;29.30;52.70;;;;;;678569;29;1249;-90
2022/06/26 01:41:47;;;;;;;;;;;29.30;53.80;;;;;;678497;29;1081;-86
2022/06/26 01:42:07;;;;;;;;;;;29.30;53.80;;;;;;677799;29;1304;-86
2022/06/26 01:42:28;;;;;;;;;;;29.30;52.70;;;;;;678214;29;1299;-91
2022/06/26 01:42:49;;;;;;;;;;;29.30;52.40;;;;;;678270;29;875;-89
2022/06/26 01:43:10;;;;;;;;;;;29.30;52.70;;;;;;676317;29;1173;-87
2022/06/26 01:43:32;;;;;;;;;;;29.30;52.40;;;;;;678946;29;1426;-91
2022/06/26 01:43:52;;;;;;;;;;;29.30;52.90;;;;;;678091;29;1315;-92
2022/06/26 01:44:16;;;;;;;;;;;29.50;53.50;;;;;;678497;29;1179;-89
2022/06/26 01:44:39;;;;;;;;;;;28.40;52.00;;;;;;680662;29;1349;-83
2022/06/26 01:44:59;;;;;;;;;;;29.30;54.50;;;;;;679322;29;871;-88
2022/06/26 01:45:20;;;;;;;;;;;29.30;53.40;;;;;;683340;29;1172;-90
2022/06/26 01:45:42;;;;;;;;;;;29.30;53.40;;;;;;683284;28;1420;-86
2022/06/26 01:46:04;;;;;;;;;;;29.30;52.50;;;;;;683305;29;1135;-90
2022/06/26 01:46:25;;;;;;;;;;;29.30;52.60;;;;;;684129;28;886;-86
2022/06/26 01:46:45;;;;;;;;;;;29.30;52.60;;;;;;683264;29;1273;-87
2022/06/26 01:47:06;;;;;;;;;;;29.30;52.90;;;;;;682732;28;1434;-88
2022/06/26 01:47:26;;;;;;;;;;;29.30;53.00;;;;;;680201;29;1196;-86
2022/06/26 01:47:47;;;;;;;;;;;29.20;53.80;;;;;;678383;29;1923;-88
2022/06/26 01:48:07;;;;;;;;;;;29.40;53.90;;;;;;680779;29;926;-90
2022/06/26 01:48:29;;;;;;;;;;;29.20;53.80;;;;;;680612;29;804;-89
2022/06/26 01:48:49;;;;;;;;;;;29.30;53.20;;;;;;677887;29;1202;-90
2022/06/26 01:49:10;;;;;;;;;;;29.30;53.30;;;;;;678440;29;800;-85
2022/06/26 01:49:31;;;;;;;;;;;29.30;53.00;;;;;;681067;29;1201;-90
2022/06/26 01:49:51;;;;;;;;;;;29.30;53.60;;;;;;683225;29;828;-84
2022/06/26 01:50:12;;;;;;;;;;;29.30;54.90;;;;;;683208;29;1376;-87
2022/06/26 01:50:32;;;;;;;;;;;29.30;54.50;;;;;;683343;29;1372;-91
2022/06/26 01:50:54;;;;;;;;;;;29.20;53.10;;;;;;683235;29;925;-90
2022/06/26 01:51:15;;;;;;;;;;;29.30;52.70;;;;;;682749;29;1275;-91
2022/06/26 01:51:36;;;;;;;;;;;29.30;53.80;;;;;;677945;29;1318;-91
2022/06/26 01:51:56;;;;;;;;;;;29.20;52.60;;;;;;678051;29;916;-86
2022/06/26 01:52:17;;;;;;;;;;;29.30;52.90;;;;;;678454;29;813;-88
2022/06/26 01:52:37;;;;;;;;;;;29.20;53.20;;;;;;680748;29;875;-88
2022/06/26 01:52:58;;;;;;;;;;;29.30;52.90;;;;;;678144;29;1085;-86
2022/06/26 01:53:18;;;;;;;;;;;29.20;53.00;;;;;;683435;28;1217;-87
2022/06/26 01:53:39;;;;;;;;;;;29.30;53.00;;;;;;682872;28;1219;-88
2022/06/26 01:54:00;;;;;;;;;;;29.30;53.10;;;;;;680627;29;1365;-84
2022/06/26 01:54:20;;;;;;;;;;;29.30;53.90;;;;;;685428;28;1403;-91
2022/06/26 01:54:41;;;;;;;;;;;29.20;54.40;;;;;;682859;29;1201;-92
2022/06/26 01:55:02;;;;;;;;;;;29.30;53.50;;;;;;677805;29;1178;-91
2022/06/26 01:55:22;;;;;;;;;;;29.30;52.90;;;;;;675849;29;1219;-93
2022/06/26 01:55:43;;;;;;;;;;;29.10;52.90;;;;;;675583;29;1128;-90
2022/06/26 01:56:04;;;;;;;;;;;29.20;52.60;;;;;;678387;29;1477;-90
2022/06/26 01:56:24;;;;;;;;;;;29.20;54.10;;;;;;680982;29;808;-90
2022/06/26 01:56:45;;;;;;;;;;;29.20;53.70;;;;;;683230;29;800;-89
2022/06/26 01:57:05;;;;;;;;;;;29.20;53.50;;;;;;683025;29;902;-89
2022/06/26 01:57:26;;;;;;;;;;;29.20;53.40;;;;;;681172;29;886;-91
2022/06/26 01:57:46;;;;;;;;;;;29.20;53.00;;;;;;681181;29;1199;-86
2022/06/26 01:58:07;;;;;;;;;;;29.20;53.70;;;;;;681577;29;1334;-91
2022/06/26 01:58:28;;;;;;;;;;;29.20;53.50;;;;;;683909;28;1251;-92
2022/06/26 01:58:48;;;;;;;;;;;29.20;52.80;;;;;;686343;28;1225;-91
2022/06/26 01:59:09;;;;;;;;;;;29.20;53.60;;;;;;684070;28;1316;-88
2022/06/26 01:59:30;;;;;;;;;;;29.20;53.20;;;;;;681780;29;1217;-90
2022/06/26 01:59:50;;;;;;;;;;;29.20;53.40;;;;;;684172;28;1234;-89
2022/06/26 02:00:11;;;;;;;;;;;29.20;53.60;;;;;;684861;28;1190;-89
2022/06/26 02:00:33;;;;;;;;;;;29.20;52.80;;;;;;682892;29;1327;-89
2022/06/26 02:00:54;;;;;;;;;;;29.20;52.70;;;;;;680963;29;1411;-88
2022/06/26 02:01:14;;;;;;;;;;;29.10;53.80;;;;;;681314;29;740;-90
2022/06/26 02:01:35;;;;;;;;;;;29.10;55.50;;;;;;681764;29;839;-91
2022/06/26 02:01:56;;;;;;;;;;;29.10;53.60;;;;;;681245;29;1226;-89
2022/06/26 02:02:16;;;;;;;;;;;29.10;52.90;;;;;;683562;28;1079;-91
2022/06/26 02:02:37;;;;;;;;;;;28.20;52.60;;;;;;681644;29;1389;-89
2022/06/26 02:02:58;;;;;;;;;;;29.20;53.30;;;;;;683793;29;883;-91
2022/06/26 02:03:18;;;;;;;;;;;25.90;50.40;;;;;;684176;29;1179;-91
2022/06/26 02:03:39;;;;;;;;;;;29.20;53.80;;;;;;684818;28;1255;-88
2022/06/26 02:03:59;;;;;;;;;;;29.10;53.10;;;;;;689955;28;1188;-90
2022/06/26 02:04:20;;;;;;;;;;;29.10;52.80;;;;;;686990;28;1202;-90
2022/06/26 02:04:40;;;;;;;;;;;29.10;54.00;;;;;;686679;28;1064;-91
2022/06/26 02:05:01;;;;;;;;;;;29.20;53.10;;;;;;686822;28;1282;-90
2022/06/26 02:05:22;;;;;;;;;;;29.20;53.00;;;;;;683447;29;1304;-87
2022/06/26 02:05:52;;;;;;;;;;;29.10;54.40;;;;;;681708;28;1207;-83
2022/06/26 02:06:12;;;;;;;;;;;30.80;54.40;;;;;;682204;29;1002;-89
2022/06/26 02:06:33;;;;;;;;;;;29.10;53.00;;;;;;680769;29;1201;-90
2022/06/26 02:06:55;;;;;;;;;;;29.10;54.00;;;;;;682199;29;1203;-89
2022/06/26 02:07:16;;;;;;;;;;;29.10;54.00;;;;;;680664;29;1138;-88
2022/06/26 02:07:36;;;;;;;;;;;29.20;53.80;;;;;;680834;29;1902;-89
2022/06/26 02:07:58;;;;;;;;;;;29.10;53.80;;;;;;683668;29;1187;-89